createdAt,value
2023-04-06T00:00:43.844Z,17.50
2023-04-06T00:06:05.868Z,16.10
2023-04-06T00:11:28.076Z,14.57
2023-04-06T00:16:50.019Z,19.90
2023-04-06T00:22:11.969Z,14.43
2023-04-06T00:27:34.031Z,14.32
2023-04-06T00:32:55.875Z,12.15
2023-04-06T00:38:18.390Z,16.98
2023-04-06T00:43:40.262Z,16.13
2023-04-06T00:49:02.127Z,16.20
2023-04-06T00:54:23.975Z,11.85
2023-04-06T00:59:46.220Z,15.27
2023-04-06T01:05:08.424Z,11.95
2023-04-06T01:10:30.521Z,11.98
2023-04-06T01:15:52.601Z,13.15
2023-04-06T01:21:14.511Z,12.32
2023-04-06T01:26:38.098Z,14.82
2023-04-06T01:31:59.978Z,13.55
2023-04-06T01:37:23.026Z,13.70
2023-04-06T01:42:44.997Z,13.68
2023-04-06T01:48:08.537Z,13.18
2023-04-06T01:53:30.401Z,20.17
2023-04-06T01:58:52.284Z,11.55
2023-04-06T02:04:14.170Z,12.88
2023-04-06T02:09:36.654Z,10.23
2023-04-06T02:14:58.514Z,11.20
2023-04-06T02:20:20.571Z,11.25
2023-04-06T02:25:42.483Z,9.98
2023-04-06T02:31:04.410Z,9.93
2023-04-06T02:36:26.257Z,8.90
2023-04-06T02:41:48.106Z,8.07
2023-04-06T02:47:09.947Z,7.55
2023-04-06T02:52:31.957Z,12.43
2023-04-06T02:57:53.753Z,12.05
2023-04-06T03:03:15.705Z,12.48
2023-04-06T03:08:37.733Z,11.18
2023-04-06T03:13:59.579Z,11.52
2023-04-06T03:19:21.388Z,10.43
2023-04-06T03:24:43.246Z,10.55
2023-04-06T03:30:05.814Z,10.13
2023-04-06T03:35:27.748Z,11.63
2023-04-06T03:40:49.613Z,13.43
2023-04-06T03:46:11.571Z,11.75
2023-04-06T03:51:33.490Z,11.57
2023-04-06T03:56:55.317Z,21.73
2023-04-06T04:02:17.170Z,16.20
2023-04-06T04:07:39.185Z,16.70
2023-04-06T04:13:01.040Z,12.85
2023-04-06T04:18:22.905Z,14.32
2023-04-06T04:23:44.773Z,16.30
2023-04-06T04:29:07.330Z,14.77
2023-04-06T04:34:29.457Z,16.33
2023-04-06T04:39:51.277Z,17.05
2023-04-06T04:45:13.086Z,13.25
2023-04-06T04:50:34.985Z,14.25
2023-04-06T04:55:56.990Z,13.73
2023-04-06T05:01:18.923Z,14.45
2023-04-06T05:06:40.932Z,13.20
2023-04-06T05:12:03.378Z,13.85
2023-04-06T05:17:25.294Z,12.48
2023-04-06T05:22:47.242Z,16.00
2023-04-06T05:28:09.134Z,15.73
2023-04-06T05:33:31.058Z,11.40
2023-04-06T05:38:52.906Z,11.98
2023-04-06T05:44:14.777Z,11.15
2023-04-06T05:49:36.776Z,9.45
2023-04-06T05:54:58.617Z,10.02
2023-04-06T06:00:20.798Z,10.43
2023-04-06T06:05:42.657Z,9.48
2023-04-06T06:11:04.720Z,9.15
2023-04-06T06:16:26.594Z,19.73
2023-04-06T06:21:48.500Z,22.25
2023-04-06T06:27:10.332Z,24.65
2023-04-06T06:32:33.137Z,8.93
2023-04-06T06:37:55.009Z,10.13
2023-04-06T06:43:16.905Z,11.35
2023-04-06T06:48:38.742Z,6.63
2023-04-06T06:54:00.552Z,7.25
2023-04-06T06:59:22.541Z,5.75
2023-04-06T07:04:44.406Z,7.85
2023-04-06T07:10:06.967Z,11.30
2023-04-06T07:15:28.834Z,28.30
2023-04-06T07:20:50.704Z,16.05
2023-04-06T07:26:12.576Z,63.55
2023-04-06T07:31:34.470Z,12.50
2023-04-06T07:36:56.337Z,5.93
2023-04-06T07:42:18.235Z,6.75
2023-04-06T07:47:40.137Z,6.85
2023-04-06T07:53:02.035Z,6.10
2023-04-06T07:58:23.895Z,5.03
2023-04-06T08:03:45.869Z,7.47
2023-04-06T08:09:07.861Z,8.45
2023-04-06T08:14:29.706Z,6.00
2023-04-06T08:19:51.509Z,7.55
2023-04-06T08:25:13.895Z,8.32
2023-04-06T08:30:36.218Z,6.93
2023-04-06T08:35:58.426Z,5.25
2023-04-06T08:41:20.740Z,6.47
2023-04-06T08:46:42.716Z,6.15
2023-04-06T08:52:07.521Z,5.78
2023-04-06T08:57:30.070Z,5.65
2023-04-06T09:02:54.818Z,6.10
2023-04-06T09:08:16.774Z,6.68
2023-04-06T09:13:56.276Z,5.32
2023-04-06T09:19:18.112Z,7.13
2023-04-06T09:24:52.086Z,5.20
2023-04-06T09:30:14.615Z,6.40
2023-04-06T09:35:36.561Z,7.90
2023-04-06T09:41:01.102Z,6.97
2023-04-06T09:46:24.076Z,4.65
2023-04-06T09:51:56.269Z,4.53
2023-04-06T09:57:18.053Z,6.35
2023-04-06T10:03:13.394Z,5.72
2023-04-06T10:08:37.417Z,10.53
2023-04-06T10:13:59.398Z,5.95
2023-04-06T10:19:30.050Z,5.03
2023-04-06T10:24:51.933Z,8.15
2023-04-06T10:30:16.745Z,6.57
2023-04-06T10:35:39.017Z,8.30
2023-04-06T10:41:09.147Z,8.10
2023-04-06T10:46:32.546Z,8.82
2023-04-06T10:51:57.942Z,6.78
2023-04-06T10:57:29.482Z,6.88
2023-04-06T11:02:51.458Z,6.53
2023-04-06T11:08:28.328Z,6.35
2023-04-06T11:13:56.033Z,6.82
2023-04-06T11:19:18.699Z,6.97
2023-04-06T11:24:40.595Z,4.45
2023-04-06T11:30:03.177Z,6.40
2023-04-06T11:35:25.109Z,6.55
2023-04-06T11:40:47.106Z,7.03
2023-04-06T11:51:28.393Z,7.35
2023-04-06T11:56:50.220Z,4.78
2023-04-06T12:02:12.274Z,6.78
2023-04-06T12:07:34.269Z,6.18
2023-04-06T12:12:56.120Z,11.15
2023-04-06T12:18:17.933Z,6.28
2023-04-06T12:23:39.758Z,6.30
2023-04-06T12:29:01.621Z,7.25
2023-04-06T12:34:23.448Z,5.88
2023-04-06T12:39:45.355Z,5.65
2023-04-06T12:45:07.941Z,6.00
2023-04-06T12:50:29.807Z,5.72
2023-04-06T12:55:54.369Z,8.88
2023-04-06T13:01:16.408Z,6.38
2023-04-06T13:06:38.313Z,4.90
2023-04-06T13:12:00.233Z,5.72
2023-04-06T13:17:22.199Z,6.22
2023-04-06T13:22:44.231Z,6.13
2023-04-06T13:28:06.068Z,4.82
2023-04-06T13:33:29.002Z,5.30
2023-04-06T13:38:50.873Z,5.68
2023-04-06T13:44:12.750Z,6.80
2023-04-06T13:49:34.643Z,5.78
2023-04-06T13:54:56.660Z,9.00
2023-04-06T14:00:19.148Z,7.38
2023-04-06T14:05:41.016Z,7.43
2023-04-06T14:11:02.813Z,6.25
2023-04-06T14:16:25.030Z,6.65
2023-04-06T14:21:47.277Z,7.57
2023-04-06T14:27:09.086Z,6.63
2023-04-06T14:32:30.950Z,7.07
2023-04-06T14:37:52.774Z,8.93
2023-04-06T14:43:14.898Z,9.00
2023-04-06T14:48:36.995Z,5.70
2023-04-06T14:53:58.811Z,9.65
2023-04-06T14:59:20.608Z,5.57
2023-04-06T15:04:42.427Z,8.93
2023-04-06T15:10:05.695Z,8.20
2023-04-06T15:15:27.533Z,7.10
2023-04-06T15:20:49.330Z,8.05
2023-04-06T15:26:11.169Z,5.57
2023-04-06T15:37:14.753Z,6.38
2023-04-06T15:42:36.598Z,8.40
2023-04-06T15:47:58.465Z,8.80
2023-04-06T15:53:20.333Z,8.10
2023-04-06T15:58:42.204Z,7.32
2023-04-06T16:04:07.300Z,8.77
2023-04-06T16:09:29.204Z,8.10
2023-04-06T16:14:51.277Z,8.70
2023-04-06T16:20:13.119Z,7.68
2023-04-06T16:25:34.965Z,8.13
2023-04-06T16:30:56.771Z,8.52
2023-04-06T16:36:36.993Z,9.30
2023-04-06T16:41:59.441Z,8.15
2023-04-06T16:47:22.070Z,9.30
2023-04-06T16:52:44.400Z,13.15
2023-04-06T16:58:06.804Z,9.73
2023-04-06T17:03:30.719Z,11.43
2023-04-06T17:08:53.151Z,10.32
2023-04-06T17:14:15.238Z,9.40
2023-04-06T17:19:37.094Z,10.23
2023-04-06T17:24:58.997Z,9.73
2023-04-06T17:30:20.976Z,11.40
2023-04-06T17:35:42.836Z,8.55
2023-04-06T17:41:04.768Z,9.93
2023-04-06T17:46:26.914Z,8.63
2023-04-06T17:51:49.045Z,10.30
2023-04-06T17:57:10.923Z,9.48
2023-04-06T18:02:32.885Z,9.32
2023-04-06T18:07:54.916Z,10.52
2023-04-06T18:13:16.864Z,9.68
2023-04-06T18:18:38.755Z,13.63
2023-04-06T18:24:04.788Z,10.20
2023-04-06T18:29:27.899Z,10.65
2023-04-06T18:34:49.809Z,11.85
2023-04-06T18:40:34.225Z,10.63
2023-04-06T18:45:56.103Z,13.15
2023-04-06T18:51:18.322Z,11.88
2023-04-06T18:56:40.245Z,13.77
2023-04-06T19:02:02.263Z,13.80
2023-04-06T19:07:24.158Z,11.60
2023-04-06T19:12:46.005Z,11.90
2023-04-06T19:18:07.848Z,10.32
2023-04-06T19:23:29.762Z,11.05
2023-04-06T19:28:51.597Z,11.07
2023-04-06T19:34:13.436Z,10.55
2023-04-06T19:39:35.384Z,11.07
2023-04-06T19:44:58.519Z,11.45
2023-04-06T19:50:20.619Z,11.32
2023-04-06T19:55:42.481Z,11.77
2023-04-06T20:01:04.655Z,12.00
2023-04-06T20:06:26.554Z,9.15
2023-04-06T20:11:48.712Z,9.20
2023-04-06T20:17:10.509Z,9.35
2023-04-06T20:22:32.515Z,9.45
2023-04-06T20:27:54.404Z,11.20
2023-04-06T20:33:16.298Z,10.43
2023-04-06T20:38:38.265Z,12.35
2023-04-06T20:44:00.182Z,15.45
2023-04-06T20:49:22.101Z,13.43
2023-04-06T20:54:44.030Z,14.27
2023-04-06T21:00:06.566Z,18.63
2023-04-06T21:05:28.587Z,21.65
2023-04-06T21:10:50.482Z,17.63
2023-04-06T21:16:12.394Z,22.38
2023-04-06T21:21:34.292Z,19.25
2023-04-06T21:26:56.184Z,22.35
2023-04-06T21:32:18.322Z,20.63
2023-04-06T21:37:40.224Z,17.60
2023-04-06T21:43:02.306Z,17.73
2023-04-06T21:48:24.231Z,19.20
2023-04-06T21:53:47.269Z,24.85
2023-04-06T21:59:09.290Z,25.33
2023-04-06T22:04:32.020Z,21.10
2023-04-06T22:09:54.110Z,17.95
2023-04-06T22:15:16.576Z,19.52
2023-04-06T22:20:38.597Z,20.80
2023-04-06T22:26:00.581Z,20.33
2023-04-06T22:31:22.550Z,22.08
2023-04-06T22:36:44.396Z,20.00
2023-04-06T22:42:06.283Z,17.58
2023-04-06T22:47:28.245Z,19.20
2023-04-06T22:52:50.375Z,18.95
2023-04-06T22:58:12.698Z,19.98
2023-04-06T23:03:34.677Z,18.58
2023-04-06T23:08:56.620Z,20.48
2023-04-06T23:14:18.734Z,19.02
2023-04-06T23:19:40.861Z,22.02
2023-04-06T23:25:02.758Z,19.92
2023-04-06T23:30:24.649Z,20.90
2023-04-06T23:35:46.639Z,22.25
2023-04-06T23:41:08.576Z,23.10
2023-04-06T23:46:30.478Z,19.92
2023-04-06T23:51:52.372Z,21.60
2023-04-06T23:57:14.244Z,19.25
